Detall de PIREP

Printer-friendly versionPDF version

[2013/07/09 15:59:00]
Flight IATA:CT3106
Pilot Number:012
Company ICAO:CAT
Aircraft Type:B763/F
PAX:263
Departing Airport: LIEA
Destination Airport: LEVC
Alternate Airport:LEPA
Online: VATSIM
Route:SUPUX UZ924 RIPAL UM603 CDP UN733 ARGOR
Flight Level:F350
No Slew and time accel
No pause
Crash detect
Detect pilot in Cockpit between each 30 and 45 minutes
15:59 Zero fuel Weight: 248786 Lbs, Fuel Weight: 31858 Lbs
15:59 VATSIM:LIEA 091520Z 03007KT 360V060 9999 SCT030 30/16 Q1017
15:59 VATSIM:LEVC 091530Z 12010KT 080V150 9999 FEW020 29/18 Q1016 NOSIG
15:59 VOICE CATALONIAN
16:01 Parking Brakes off
16:06 Take-off
16:06 Take off Weight: 279183 Lbs
16:06 Wind: 020º @ 006 Knots Heading: 204º
16:06 POS N40º 37´ 41´´ E008º 17´ 19´´
16:06 Gear Up: 184 Knots
16:06 Flaps:2 at 185 Knots
16:07 Flaps:1 at 199 Knots
16:09 Flaps:0 at 208 Knots
16:20 TOC
16:20 Fuel Weight: 24468 Lb
16:21 Wind:312º@012 Knots Heading: 260º Ground Speed: 478 Knots Altitude 35052 ft
16:36 Wind:311º@025 Knots Heading: 256º Ground Speed: 464 Knots Altitude 35104 ft
16:51 Wind:282º@021 Knots Heading: 266º Ground Speed: 458 Knots Altitude 35101 ft
16:51 TOD
16:51 Fuel Weight: 19703 Lb
17:04 Flaps:1 at 244 Knots
17:06 Wind:302º@004 Knots Heading: 274º Ground Speed: 230 Knots Altitude 5977 ft
17:06 Flaps:2 at 216 Knots
17:11 Flaps:3 at 166 Knots
17:11 Gear Down: 167 Knots
17:12 Flaps:4 at 140 Knots
17:12 Flaps:5 at 136 Knots
17:13 Flaps:6 at 135 Knots
17:16 TouchDown:Rate -252 ft/min Speed: 125 Knots
17:16 VATSIM:LEVC 091700Z 09009KT 060V120 9999 FEW020 28/19 Q1016 TEMPO FEW020CB
17:16 Land
17:16 Wind:103º@009 Knots
17:16 Heading: 117º
17:16 Flight Duration: 01:10
17:16 Landing Weight: 265858 Lbs
17:16 POS N39º 29´ 30´´ W000º 29´ 17´´
17:18 Parking brakes on
17:18 Block to Block Duration: 01:17
17:18 Final Fuel: 16796 Lbls
17:18 Spent Fuel: 15061 Lbls
17:18 Flight Length: 448 NM
17:18 TOD Land Length: 119 NM

Exportar CSV

Powered by Drupal - Modified by Danger4k